Time;durP1;ratioP1;P1;durP2;ratioP2;P2;SDS_P1;SDS_P2;PMS_P1;PMS_P2;Temp;Humidity;BMP_temperature;BMP_pressure;BME280_temperature;BME280_humidity;BME280_pressure;Samples;Min_cycle;Max_cycle;Signal;HPM_P1;HPM_P2
2023/05/01 00:01:18;;;;;;;15.88;14.23;;;15.10;71.70;;;;;;5005775;28;20504;-78
2023/05/01 00:03:44;;;;;;;15.35;13.82;;;15.10;71.40;;;;;;5006636;28;20043;-75
2023/05/01 00:06:10;;;;;;;15.95;14.35;;;15.10;71.40;;;;;;5006911;28;20112;-74
2023/05/01 00:08:35;;;;;;;16.45;14.65;;;15.10;71.10;;;;;;5004407;28;20091;-84
2023/05/01 00:11:02;;;;;;;14.68;13.27;;;15.10;70.00;;;;;;5002896;28;20058;-77
2023/05/01 00:13:28;;;;;;;14.27;12.57;;;15.00;69.90;;;;;;5002107;28;20034;-77
2023/05/01 00:15:54;;;;;;;14.68;13.23;;;15.00;69.90;;;;;;5012983;28;20026;-77
2023/05/01 00:18:20;;;;;;;14.82;12.43;;;15.00;70.10;;;;;;5015554;28;20400;-76
2023/05/01 00:20:46;;;;;;;13.20;11.90;;;15.00;70.00;;;;;;5012068;28;20034;-76
2023/05/01 00:23:12;;;;;;;12.63;11.35;;;15.00;69.70;;;;;;5016023;28;20033;-73
2023/05/01 00:25:38;;;;;;;12.35;11.15;;;15.00;69.20;;;;;;5008455;28;20109;-82
2023/05/01 00:28:05;;;;;;;11.93;10.65;;;15.00;69.00;;;;;;5007472;28;20057;-73
2023/05/01 00:30:32;;;;;;;13.88;12.48;;;15.00;69.10;;;;;;5010448;28;20104;-75
2023/05/01 00:32:58;;;;;;;13.73;12.25;;;15.00;69.00;;;;;;5009580;28;20041;-75
2023/05/01 00:35:24;;;;;;;12.52;11.25;;;15.00;68.80;;;;;;5012724;28;20018;-77
2023/05/01 00:37:50;;;;;;;12.48;10.70;;;15.00;68.90;;;;;;5007496;28;20056;-73
2023/05/01 00:40:16;;;;;;;12.45;11.05;;;15.00;68.90;;;;;;5011583;28;20048;-77
2023/05/01 00:42:41;;;;;;;11.15;10.02;;;15.00;68.70;;;;;;5006399;28;20410;-80
2023/05/01 00:45:08;;;;;;;11.90;10.60;;;15.00;68.50;;;;;;5007472;28;20435;-74
2023/05/01 00:47:37;;;;;;;11.00;9.77;;;15.00;68.10;;;;;;5010028;28;20050;-73
2023/05/01 00:50:04;;;;;;;12.00;10.65;;;15.00;68.10;;;;;;5011695;28;20089;-78
2023/05/01 00:52:30;;;;;;;11.68;9.90;;;15.00;68.00;;;;;;5016645;28;20030;-76
2023/05/01 00:54:56;;;;;;;13.23;10.43;;;14.90;68.10;;;;;;5007902;28;20057;-73
2023/05/01 00:57:22;;;;;;;11.32;9.77;;;15.00;68.20;;;;;;5007581;28;20053;-76
2023/05/01 00:59:48;;;;;;;12.10;10.57;;;14.90;68.20;;;;;;5016134;28;20033;-73
2023/05/01 01:02:14;;;;;;;12.68;10.73;;;14.90;68.20;;;;;;5012328;28;20417;-77
2023/05/01 01:04:45;;;;;;;11.88;10.68;;;14.90;68.20;;;;;;5012516;28;20072;-74
2023/05/01 01:07:20;;;;;;;13.20;11.80;;;14.90;68.60;;;;;;5005953;28;20374;-73
2023/05/01 01:10:12;;;;;;;14.20;12.10;;;14.80;69.00;;;;;;5008514;28;20029;-81
2023/05/01 01:12:53;;;;;;;13.70;12.30;;;14.70;69.20;;;;;;5013188;28;20057;-75
2023/05/01 01:15:37;;;;;;;13.52;12.18;;;14.80;69.70;;;;;;5016407;28;20109;-78
2023/05/01 01:18:30;;;;;;;12.73;11.43;;;14.70;69.90;;;;;;5012125;28;20041;-81
2023/05/01 01:21:15;;;;;;;13.32;12.02;;;14.70;70.10;;;;;;5006775;28;20022;-76
2023/05/01 01:23:40;;;;;;;;;;;14.70;70.30;;;;;;5009565;28;20394;-76
2023/05/01 01:26:29;;;;;;;14.57;13.18;;;14.60;70.40;;;;;;5013172;28;19920;-75
2023/05/01 01:29:19;;;;;;;14.35;12.77;;;14.60;70.80;;;;;;5005585;28;20037;-85
2023/05/01 01:32:23;;;;;;;15.30;13.80;;;14.60;70.90;;;;;;5002546;28;20096;-76
2023/05/01 01:35:05;;;;;;;15.02;13.52;;;14.60;71.20;;;;;;5010966;28;20049;-75
2023/05/01 01:38:03;;;;;;;15.18;13.57;;;14.60;71.40;;;;;;5013753;28;20088;-74
2023/05/01 01:40:38;;;;;;;14.93;13.43;;;14.60;71.60;;;;;;5015897;28;20076;-76
2023/05/01 01:43:09;;;;;;;;;;;14.60;71.90;;;;;;5008301;28;20042;-74
2023/05/01 01:45:45;;;;;;;15.35;13.77;;;14.60;72.10;;;;;;5008853;28;20611;-75
2023/05/01 01:48:16;;;;;;;15.90;13.73;;;14.50;72.40;;;;;;5016557;28;20033;-79
2023/05/01 01:50:44;;;;;;;15.18;13.68;;;14.50;72.60;;;;;;5012914;28;20029;-76
2023/05/01 01:53:16;;;;;;;15.98;14.38;;;14.50;72.90;;;;;;5009215;28;20025;-75
2023/05/01 01:55:44;;;;;;;15.48;13.88;;;14.50;73.10;;;;;;5006200;28;20156;-77
2023/05/01 01:58:11;;;;;;;16.15;14.50;;;14.50;73.10;;;;;;5009112;28;20053;-76
2023/05/01 02:00:40;;;;;;;15.65;14.15;;;14.50;73.20;;;;;;5021585;28;20017;-76
2023/05/01 02:03:07;;;;;;;14.95;13.35;;;14.40;73.20;;;;;;5013346;28;20172;-77
2023/05/01 02:05:34;;;;;;;14.70;13.25;;;14.40;73.30;;;;;;5005193;28;20057;-74
2023/05/01 02:08:01;;;;;;;16.45;14.85;;;14.50;73.50;;;;;;5007341;28;20533;-77
2023/05/01 02:10:27;;;;;;;15.60;14.00;;;14.40;73.60;;;;;;5005915;28;20501;-74
2023/05/01 02:12:57;;;;;;;16.02;14.32;;;14.40;73.80;;;;;;5004324;28;20100;-79
2023/05/01 02:15:25;;;;;;;16.50;14.90;;;14.40;73.90;;;;;;5011994;28;20037;-76
2023/05/01 02:17:52;;;;;;;17.15;15.45;;;14.40;73.90;;;;;;5019648;28;20434;-75
2023/05/01 02:20:18;;;;;;;16.38;14.77;;;14.40;73.90;;;;;;5010739;28;20021;-75
2023/05/01 02:22:46;;;;;;;18.30;16.52;;;14.40;73.90;;;;;;5008119;28;20129;-74
2023/05/01 02:25:13;;;;;;;16.73;15.00;;;14.40;74.00;;;;;;5014607;28;20155;-78
2023/05/01 02:28:02;;;;;;;16.73;15.00;;;14.40;74.10;;;;;;5012001;28;20374;-77
2023/05/01 02:30:28;;;;;;;16.95;15.05;;;14.30;74.10;;;;;;5008726;28;20483;-76
2023/05/01 02:32:53;;;;;;;15.80;14.23;;;14.30;74.10;;;;;;5005923;28;20421;-75
2023/05/01 02:35:20;;;;;;;17.05;15.05;;;14.40;74.30;;;;;;5013798;28;20036;-77
2023/05/01 02:37:46;;;;;;;16.75;15.15;;;14.40;74.30;;;;;;5004840;28;20486;-73
2023/05/01 02:40:15;;;;;;;15.38;13.77;;;14.30;74.30;;;;;;5012228;28;20606;-76
2023/05/01 02:42:44;;;;;;;16.00;14.40;;;14.30;74.40;;;;;;5013889;28;20041;-79
2023/05/01 02:45:18;;;;;;;17.40;15.70;;;14.30;74.60;;;;;;5006963;28;20049;-78
2023/05/01 02:47:47;;;;;;;14.73;13.32;;;14.30;74.80;;;;;;5008691;28;20754;-75
2023/05/01 02:50:14;;;;;;;16.42;14.68;;;14.30;74.90;;;;;;5014380;28;20053;-77
2023/05/01 02:52:40;;;;;;;16.50;14.90;;;14.20;74.80;;;;;;5000413;28;20903;-74
2023/05/01 02:55:07;;;;;;;16.15;14.63;;;14.20;74.90;;;;;;5014857;28;20029;-77
2023/05/01 02:57:33;;;;;;;16.00;14.40;;;14.20;75.00;;;;;;5007486;28;20117;-75
2023/05/01 02:59:59;;;;;;;16.38;14.68;;;14.20;75.10;;;;;;5016132;28;20344;-75
2023/05/01 03:02:24;;;;;;;16.42;14.82;;;14.20;75.20;;;;;;5015995;28;20567;-75
2023/05/01 03:04:50;;;;;;;19.05;17.13;;;14.20;75.10;;;;;;5011011;28;20034;-75
2023/05/01 03:07:16;;;;;;;17.38;15.50;;;14.20;75.00;;;;;;5019631;28;20021;-74
2023/05/01 03:09:42;;;;;;;17.42;15.75;;;14.10;75.00;;;;;;5015702;28;20021;-75
2023/05/01 03:12:07;;;;;;;17.73;16.02;;;14.10;75.00;;;;;;5021339;28;20030;-74
2023/05/01 03:14:33;;;;;;;18.90;16.77;;;14.10;75.20;;;;;;5018238;28;20092;-75
2023/05/01 03:16:59;;;;;;;19.42;17.63;;;14.10;75.20;;;;;;5012521;28;20030;-75
2023/05/01 03:19:25;;;;;;;17.63;15.85;;;14.10;75.30;;;;;;5010792;28;20112;-77
2023/05/01 03:21:51;;;;;;;20.52;18.52;;;14.10;75.40;;;;;;5013079;28;20041;-74
2023/05/01 03:24:16;;;;;;;20.58;18.58;;;14.10;75.60;;;;;;5015533;28;20034;-75
2023/05/01 03:26:42;;;;;;;23.55;21.08;;;14.10;75.70;;;;;;5003750;28;20033;-74
2023/05/01 03:29:08;;;;;;;22.95;20.75;;;14.10;76.00;;;;;;5021306;28;20033;-74
2023/05/01 03:31:34;;;;;;;27.33;24.63;;;14.00;76.40;;;;;;5004680;28;20461;-74
2023/05/01 03:34:00;;;;;;;28.73;25.88;;;14.00;76.90;;;;;;5000469;28;20032;-74
2023/05/01 03:36:26;;;;;;;30.42;27.30;;;14.00;77.30;;;;;;5022611;28;20405;-76
2023/05/01 03:38:52;;;;;;;28.85;26.02;;;13.90;77.50;;;;;;5012921;28;20018;-75
2023/05/01 03:41:17;;;;;;;30.90;27.70;;;13.90;77.60;;;;;;5017990;28;20524;-74
2023/05/01 03:43:43;;;;;;;31.08;27.98;;;13.90;77.80;;;;;;5005775;28;20042;-76
2023/05/01 03:46:09;;;;;;;31.13;28.05;;;13.90;78.00;;;;;;5013568;28;20373;-75
2023/05/01 03:48:35;;;;;;;29.90;26.80;;;13.90;78.10;;;;;;5021737;28;20670;-74
2023/05/01 03:51:00;;;;;;;31.25;28.13;;;13.90;78.20;;;;;;5016262;28;20026;-74
2023/05/01 03:53:26;;;;;;;30.55;27.58;;;13.90;78.30;;;;;;5016980;28;20026;-74
2023/05/01 03:55:52;;;;;;;31.13;27.75;;;13.90;78.40;;;;;;5002028;28;20029;-75
2023/05/01 03:58:17;;;;;;;32.60;29.40;;;13.90;78.40;;;;;;5007953;28;20040;-73
2023/05/01 04:00:43;;;;;;;32.97;29.70;;;13.90;78.60;;;;;;5003445;28;20024;-74
2023/05/01 04:03:09;;;;;;;33.38;29.88;;;13.80;78.70;;;;;;5019852;28;20022;-75
2023/05/01 04:05:34;;;;;;;33.15;29.75;;;13.80;78.90;;;;;;5009228;28;20422;-76
2023/05/01 04:08:00;;;;;;;35.63;32.00;;;13.80;79.10;;;;;;5013143;28;20040;-77
2023/05/01 04:10:26;;;;;;;34.22;30.63;;;13.80;79.30;;;;;;5008967;28;20032;-80
2023/05/01 04:12:52;;;;;;;34.05;30.65;;;13.80;79.40;;;;;;5019406;28;20042;-75
2023/05/01 04:15:17;;;;;;;34.08;30.60;;;13.80;79.40;;;;;;5012390;28;20038;-74
2023/05/01 04:17:43;;;;;;;34.15;30.52;;;13.80;79.50;;;;;;5011592;28;20038;-76
2023/05/01 04:20:09;;;;;;;36.75;33.10;;;13.80;79.40;;;;;;5021457;28;20018;-74
2023/05/01 04:22:35;;;;;;;34.72;31.13;;;13.80;79.50;;;;;;5019712;28;20025;-81
2023/05/01 04:25:01;;;;;;;35.65;31.95;;;13.80;79.70;;;;;;5010396;28;20037;-77
2023/05/01 04:27:27;;;;;;;35.47;31.98;;;13.80;79.70;;;;;;5007368;28;20023;-78
2023/05/01 04:29:53;;;;;;;38.55;34.58;;;13.80;79.70;;;;;;5015301;28;20068;-76
2023/05/01 04:32:18;;;;;;;37.20;33.20;;;13.80;79.90;;;;;;5010982;28;20069;-83
2023/05/01 04:34:44;;;;;;;38.45;34.00;;;13.70;79.80;;;;;;5007522;28;20030;-73
2023/05/01 04:37:10;;;;;;;39.58;35.17;;;13.70;79.80;;;;;;5017344;28;20109;-86
2023/05/01 04:39:36;;;;;;;41.90;36.58;;;13.70;79.80;;;;;;5012142;28;20350;-80
2023/05/01 04:42:02;;;;;;;43.08;38.15;;;13.70;79.80;;;;;;5019583;28;20563;-76
2023/05/01 04:44:28;;;;;;;45.40;38.17;;;13.60;79.90;;;;;;5008249;28;20071;-77
2023/05/01 04:46:54;;;;;;;46.85;39.42;;;13.70;79.90;;;;;;5013699;28;20136;-77
2023/05/01 04:49:21;;;;;;;45.75;38.88;;;13.60;79.90;;;;;;5012119;28;20646;-72
2023/05/01 04:51:47;;;;;;;45.58;39.97;;;13.60;80.10;;;;;;5016362;28;20076;-73
2023/05/01 04:54:13;;;;;;;44.00;38.08;;;13.60;80.10;;;;;;5013314;28;20632;-75
2023/05/01 04:56:38;;;;;;;51.08;42.25;;;13.60;80.10;;;;;;5015169;28;20030;-75
2023/05/01 04:59:04;;;;;;;50.58;41.42;;;13.50;79.80;;;;;;5011518;28;20038;-75
2023/05/01 05:01:30;;;;;;;50.55;40.70;;;13.60;80.00;;;;;;5011442;28;20664;-74
2023/05/01 05:03:56;;;;;;;52.90;42.28;;;13.50;80.10;;;;;;5016604;28;20036;-73
2023/05/01 05:06:22;;;;;;;53.70;42.65;;;13.40;80.20;;;;;;5007830;28;20343;-75
2023/05/01 05:08:50;;;;;;;55.72;43.50;;;13.40;80.20;;;;;;5016438;28;20060;-75
2023/05/01 05:11:17;;;;;;;54.45;42.75;;;13.40;80.20;;;;;;5014124;28;20409;-74
2023/05/01 05:13:43;;;;;;;53.83;42.92;;;13.40;80.00;;;;;;5011707;28;20455;-74
2023/05/01 05:16:09;;;;;;;51.50;41.35;;;13.40;79.90;;;;;;5014535;28;20080;-76
2023/05/01 05:18:35;;;;;;;54.35;40.80;;;13.40;79.90;;;;;;5014800;28;20021;-74
2023/05/01 05:21:04;;;;;;;51.00;41.70;;;13.40;79.80;;;;;;5008538;28;20037;-74
2023/05/01 05:23:30;;;;;;;53.10;41.25;;;13.20;80.10;;;;;;5004227;28;20120;-76
2023/05/01 05:26:00;;;;;;;51.85;41.67;;;13.20;80.20;;;;;;5017978;28;20096;-74
2023/05/01 05:28:26;;;;;;;51.42;41.58;;;13.20;80.20;;;;;;5019496;28;20033;-73
2023/05/01 05:30:51;;;;;;;55.63;43.17;;;13.20;80.20;;;;;;5015979;28;20026;-76
2023/05/01 05:33:18;;;;;;;56.78;43.60;;;13.10;80.70;;;;;;5011778;28;20029;-75
2023/05/01 05:35:44;;;;;;;55.75;45.60;;;13.10;80.80;;;;;;5014080;28;20080;-77
2023/05/01 05:38:09;;;;;;;55.22;45.45;;;13.00;81.20;;;;;;5027421;28;20426;-75
2023/05/01 05:40:35;;;;;;;55.75;45.22;;;12.90;81.30;;;;;;5015112;28;20108;-79
2023/05/01 05:43:01;;;;;;;57.28;44.13;;;13.00;81.50;;;;;;5013000;28;21817;-75
2023/05/01 05:45:28;;;;;;;57.58;45.38;;;13.10;81.30;;;;;;5016112;28;20458;-79
2023/05/01 05:47:53;;;;;;;56.38;47.10;;;13.10;80.90;;;;;;5012565;28;20431;-79
2023/05/01 05:50:19;;;;;;;55.83;45.45;;;13.10;80.90;;;;;;5021596;28;20045;-78
2023/05/01 05:52:44;;;;;;;59.00;46.90;;;13.10;81.00;;;;;;5004762;28;20405;-74
2023/05/01 05:55:10;;;;;;;56.17;46.08;;;13.00;81.20;;;;;;5009368;28;20032;-77
2023/05/01 05:57:36;;;;;;;56.10;48.03;;;13.00;81.30;;;;;;5016398;28;20476;-76
2023/05/01 06:00:04;;;;;;;55.33;44.17;;;13.10;81.40;;;;;;5014715;28;20362;-78
2023/05/01 06:02:30;;;;;;;58.40;47.42;;;13.10;81.30;;;;;;5013592;28;20355;-76
2023/05/01 06:04:56;;;;;;;55.50;45.40;;;13.20;81.30;;;;;;5011508;28;20385;-77
2023/05/01 06:07:23;;;;;;;56.70;46.95;;;13.20;81.20;;;;;;5011030;28;20045;-74
2023/05/01 06:09:48;;;;;;;54.38;47.00;;;13.30;80.60;;;;;;5017531;28;20044;-76
2023/05/01 06:12:15;;;;;;;56.35;47.33;;;13.20;80.70;;;;;;5012934;28;20029;-74
2023/05/01 06:14:40;;;;;;;55.60;47.20;;;13.10;80.90;;;;;;5006509;28;20038;-80
2023/05/01 06:17:07;;;;;;;53.97;46.55;;;13.20;81.20;;;;;;5014156;28;20056;-74
2023/05/01 06:19:33;;;;;;;53.53;46.03;;;13.30;80.80;;;;;;5011493;28;20034;-74
2023/05/01 06:21:59;;;;;;;53.55;46.80;;;13.40;80.50;;;;;;5014418;28;20042;-74
2023/05/01 06:24:24;;;;;;;54.28;45.67;;;13.40;80.40;;;;;;5017322;28;21361;-78
2023/05/01 06:26:50;;;;;;;56.65;46.78;;;13.40;80.30;;;;;;5005782;28;20049;-74
2023/05/01 06:29:16;;;;;;;52.95;46.17;;;13.30;80.20;;;;;;5002866;28;20109;-77
2023/05/01 06:31:41;;;;;;;54.50;46.67;;;13.20;80.40;;;;;;5015692;28;20056;-74
2023/05/01 06:34:07;;;;;;;58.38;46.53;;;13.20;80.60;;;;;;5005224;28;20034;-81
2023/05/01 06:36:32;;;;;;;54.40;47.38;;;13.20;80.80;;;;;;5002593;28;20470;-79
2023/05/01 06:38:58;;;;;;;54.40;47.50;;;13.20;80.70;;;;;;5009383;28;20066;-74
2023/05/01 06:41:24;;;;;;;54.45;46.03;;;13.30;80.40;;;;;;5010656;28;20045;-74
2023/05/01 06:43:50;;;;;;;53.80;45.08;;;13.50;80.30;;;;;;5018113;28;20021;-74
2023/05/01 06:46:16;;;;;;;51.80;45.10;;;13.50;80.00;;;;;;5013970;28;20057;-74
2023/05/01 06:48:42;;;;;;;55.50;45.00;;;13.60;79.50;;;;;;5018658;28;20429;-74
2023/05/01 06:51:07;;;;;;;51.38;44.58;;;13.90;79.40;;;;;;5013248;28;20517;-80
2023/05/01 06:53:33;;;;;;;49.92;42.20;;;14.10;78.40;;;;;;5015877;28;20497;-73
2023/05/01 06:55:59;;;;;;;47.97;41.47;;;14.30;77.50;;;;;;5009061;28;20077;-75
2023/05/01 06:58:25;;;;;;;49.50;41.72;;;14.30;76.70;;;;;;5013628;28;20017;-74
2023/05/01 07:00:52;;;;;;;46.50;40.95;;;14.40;76.80;;;;;;5011171;28;20033;-74
2023/05/01 07:03:17;;;;;;;44.70;39.47;;;14.50;76.40;;;;;;5014465;28;20026;-74
2023/05/01 07:05:43;;;;;;;45.13;40.17;;;14.60;77.00;;;;;;5003752;28;20406;-77
2023/05/01 07:08:09;;;;;;;45.55;40.20;;;14.60;76.10;;;;;;5016860;28;20061;-73
2023/05/01 07:10:35;;;;;;;42.70;37.85;;;14.80;76.10;;;;;;5010720;28;20451;-77
2023/05/01 07:13:01;;;;;;;44.58;36.75;;;14.60;75.90;;;;;;5018472;28;20502;-73
2023/05/01 07:15:26;;;;;;;40.75;36.38;;;14.70;75.60;;;;;;5001562;28;20095;-72
2023/05/01 07:17:52;;;;;;;44.30;35.53;;;14.80;74.90;;;;;;5011667;28;20402;-75
2023/05/01 07:20:18;;;;;;;39.55;34.97;;;14.80;74.90;;;;;;5017731;28;20075;-74
2023/05/01 07:22:43;;;;;;;41.13;35.45;;;14.60;75.50;;;;;;5011740;28;20363;-78
2023/05/01 07:25:09;;;;;;;39.47;34.58;;;14.70;75.60;;;;;;5018426;28;20033;-75
2023/05/01 07:27:35;;;;;;;37.22;32.53;;;14.60;75.50;;;;;;5008693;28;20037;-74
2023/05/01 07:30:03;;;;;;;39.05;33.15;;;14.50;75.40;;;;;;5012684;28;20064;-75
2023/05/01 07:32:29;;;;;;;36.83;32.83;;;14.50;75.40;;;;;;5006361;28;20382;-73
2023/05/01 07:34:55;;;;;;;39.00;31.50;;;14.50;76.00;;;;;;5011613;28;20328;-73
2023/05/01 07:37:21;;;;;;;40.00;29.92;;;14.50;76.60;;;;;;5008964;28;20041;-74
2023/05/01 07:39:46;;;;;;;36.00;30.17;;;14.40;76.70;;;;;;5006703;28;20033;-75
2023/05/01 07:42:12;;;;;;;35.88;31.00;;;14.40;76.60;;;;;;5012138;28;20044;-73
2023/05/01 07:44:38;;;;;;;34.78;30.33;;;14.30;76.30;;;;;;5010707;28;20473;-75
2023/05/01 07:47:05;;;;;;;36.63;31.67;;;14.30;76.30;;;;;;5014623;28;20050;-74
2023/05/01 07:49:40;;;;;;;38.08;31.00;;;14.30;76.60;;;;;;5005741;28;20018;-75
2023/05/01 07:52:08;;;;;;;32.97;29.20;;;14.40;76.50;;;;;;5005741;28;20053;-76
2023/05/01 07:54:34;;;;;;;35.95;29.30;;;14.40;75.90;;;;;;5005932;28;20121;-73
2023/05/01 07:57:00;;;;;;;37.17;30.38;;;14.60;75.90;;;;;;4996593;28;20556;-73
2023/05/01 07:59:27;;;;;;;35.80;29.98;;;14.70;75.40;;;;;;5003495;28;20037;-73
2023/05/01 08:01:52;;;;;;;36.75;31.52;;;15.00;75.70;;;;;;5007929;28;20084;-74
2023/05/01 08:04:21;;;;;;;37.08;29.52;;;15.00;74.60;;;;;;5013846;28;20429;-75
2023/05/01 08:06:48;;;;;;;37.90;29.83;;;15.20;74.50;;;;;;5013077;28;20041;-72
2023/05/01 08:09:14;;;;;;;35.08;29.65;;;15.40;72.90;;;;;;5006605;28;20413;-73
2023/05/01 08:11:40;;;;;;;32.05;28.15;;;15.30;72.50;;;;;;5009074;28;20493;-73
2023/05/01 08:14:06;;;;;;;34.35;29.48;;;15.40;72.90;;;;;;5010353;28;20422;-75
2023/05/01 08:16:33;;;;;;;33.50;27.70;;;15.50;72.80;;;;;;5008934;28;20034;-73
2023/05/01 08:18:59;;;;;;;33.20;27.52;;;15.40;72.00;;;;;;5008589;28;20474;-75
2023/05/01 08:21:25;;;;;;;31.90;26.23;;;15.40;72.10;;;;;;5004582;28;20049;-74
2023/05/01 08:23:51;;;;;;;33.53;27.30;;;15.30;71.10;;;;;;5009824;28;20373;-74
2023/05/01 08:26:17;;;;;;;32.88;26.85;;;15.50;72.10;;;;;;5005376;28;20053;-78
2023/05/01 08:28:43;;;;;;;32.58;26.38;;;15.50;70.90;;;;;;5003901;28;20030;-74
2023/05/01 08:31:09;;;;;;;31.88;26.88;;;15.40;71.20;;;;;;5007925;28;20116;-80
2023/05/01 08:33:34;;;;;;;31.77;25.65;;;15.60;71.20;;;;;;5016267;28;20088;-73
2023/05/01 08:36:00;;;;;;;31.40;25.70;;;15.60;70.50;;;;;;5017986;28;20552;-73
2023/05/01 08:38:26;;;;;;;35.55;27.42;;;15.90;70.60;;;;;;5016129;28;20037;-77
2023/05/01 08:40:53;;;;;;;33.67;26.15;;;15.90;69.90;;;;;;5022092;28;20029;-75
2023/05/01 08:43:19;;;;;;;33.60;26.27;;;16.00;69.50;;;;;;5002830;28;20045;-73
2023/05/01 08:45:46;;;;;;;32.58;25.80;;;16.00;68.20;;;;;;5014154;28;20113;-75
2023/05/01 08:48:15;;;;;;;32.45;26.75;;;16.00;68.60;;;;;;5016196;28;20139;-76
2023/05/01 08:50:45;;;;;;;32.10;25.77;;;15.90;68.20;;;;;;5018878;28;20030;-80
2023/05/01 08:53:14;;;;;;;35.58;28.05;;;15.80;67.70;;;;;;5012166;28;20345;-77
2023/05/01 08:55:46;;;;;;;30.10;26.42;;;16.00;68.40;;;;;;5010462;28;20029;-75
2023/05/01 08:58:13;;;;;;;33.25;27.33;;;15.90;68.80;;;;;;5009508;28;20577;-74
2023/05/01 09:00:40;;;;;;;35.25;27.73;;;15.90;69.00;;;;;;5000980;28;20033;-74
2023/05/01 09:03:10;;;;;;;34.72;28.75;;;15.90;69.00;;;;;;5011857;28;20029;-77
2023/05/01 09:05:36;;;;;;;32.08;27.25;;;15.90;68.10;;;;;;5005063;28;20379;-77
2023/05/01 09:08:02;;;;;;;33.28;26.63;;;16.00;68.70;;;;;;5011694;28;20033;-79
2023/05/01 09:10:29;;;;;;;33.88;27.27;;;16.00;68.00;;;;;;5012780;28;20112;-74
2023/05/01 09:12:59;;;;;;;32.33;26.35;;;16.20;67.70;;;;;;5010719;28;20408;-76
2023/05/01 09:15:26;;;;;;;30.67;26.25;;;16.40;66.60;;;;;;4993697;28;20017;-75
2023/05/01 09:17:53;;;;;;;32.55;25.45;;;16.60;67.00;;;;;;5010405;28;20041;-74
2023/05/01 09:20:18;;;;;;;32.45;26.05;;;16.70;66.70;;;;;;5012219;28;20018;-74
2023/05/01 09:22:44;;;;;;;30.90;26.38;;;16.70;65.50;;;;;;5010263;28;20037;-74
2023/05/01 09:25:10;;;;;;;31.15;24.23;;;16.80;65.60;;;;;;5007416;28;20037;-77
2023/05/01 09:27:36;;;;;;;31.05;25.60;;;17.00;65.00;;;;;;5007528;28;20090;-76
2023/05/01 09:30:04;;;;;;;27.88;23.33;;;16.80;64.80;;;;;;5009038;28;20056;-79
2023/05/01 09:32:30;;;;;;;30.25;24.30;;;16.80;65.20;;;;;;5006864;28;20052;-74
2023/05/01 09:35:13;;;;;;;28.90;23.73;;;17.10;65.20;;;;;;5006278;28;20093;-74
2023/05/01 09:37:39;;;;;;;28.70;23.73;;;17.10;64.50;;;;;;5008304;28;20029;-75
2023/05/01 09:40:10;;;;;;;28.55;23.02;;;17.20;64.90;;;;;;5003017;28;20040;-73
2023/05/01 09:42:38;;;;;;;25.90;21.85;;;17.40;63.90;;;;;;5013317;28;20036;-76
2023/05/01 09:45:06;;;;;;;25.80;21.90;;;17.40;62.70;;;;;;4993566;28;20026;-74
2023/05/01 09:47:33;;;;;;;26.40;22.60;;;17.50;62.60;;;;;;5003252;28;20038;-74
2023/05/01 09:49:58;;;;;;;23.20;20.55;;;17.50;61.20;;;;;;5002680;28;20467;-73
2023/05/01 09:52:27;;;;;;;25.35;20.60;;;17.50;61.90;;;;;;5006166;28;20083;-74
2023/05/01 09:55:14;;;;;;;27.98;21.35;;;17.60;62.00;;;;;;5006028;28;20078;-72
2023/05/01 09:57:41;;;;;;;25.48;22.02;;;17.50;60.80;;;;;;5001913;28;20033;-74
2023/05/01 10:00:15;;;;;;;23.92;20.80;;;17.40;61.20;;;;;;5007779;28;20014;-73
2023/05/01 10:02:44;;;;;;;24.27;20.95;;;17.50;61.40;;;;;;5002454;28;20022;-74
2023/05/01 10:05:11;;;;;;;27.27;23.02;;;17.60;61.30;;;;;;5010551;28;20252;-73
2023/05/01 10:07:38;;;;;;;26.13;22.98;;;17.80;61.70;;;;;;5007441;28;20038;-74
2023/05/01 10:10:17;;;;;;;26.30;21.90;;;17.80;60.80;;;;;;5010353;28;20025;-73
2023/05/01 10:12:43;;;;;;;26.83;21.55;;;18.00;60.20;;;;;;5013640;28;20034;-76
2023/05/01 10:15:09;;;;;;;26.05;21.38;;;18.30;60.50;;;;;;5008700;28;20025;-75
2023/05/01 10:17:35;;;;;;;23.13;20.63;;;18.20;58.00;;;;;;5005150;28;20041;-76
2023/05/01 10:20:00;;;;;;;27.02;21.60;;;18.40;57.60;;;;;;5016476;28;20610;-77
2023/05/01 10:22:27;;;;;;;24.90;20.90;;;18.60;57.20;;;;;;5008462;28;20128;-74
2023/05/01 10:24:53;;;;;;;23.30;19.88;;;19.10;56.80;;;;;;5009373;28;20121;-74
2023/05/01 10:27:21;;;;;;;23.85;20.23;;;19.50;55.20;;;;;;5009192;28;20062;-74
2023/05/01 10:29:50;;;;;;;23.65;19.75;;;19.20;55.00;;;;;;5012161;28;20021;-74
2023/05/01 10:32:15;;;;;;;21.70;19.40;;;19.20;54.40;;;;;;5009897;28;20026;-74
2023/05/01 10:34:50;;;;;;;24.75;20.38;;;19.00;55.70;;;;;;5007233;28;20040;-75
2023/05/01 10:37:25;;;;;;;24.60;20.27;;;18.80;56.00;;;;;;5005832;28;20026;-75
2023/05/01 10:39:51;;;;;;;24.10;20.20;;;18.80;55.10;;;;;;5003059;28;20028;-75
2023/05/01 10:42:17;;;;;;;30.77;22.45;;;18.90;55.80;;;;;;5004796;28;20030;-75
2023/05/01 10:44:43;;;;;;;26.58;23.67;;;19.00;55.90;;;;;;5004993;28;20490;-75
2023/05/01 10:47:24;;;;;;;27.58;22.48;;;18.80;55.60;;;;;;5006895;28;20050;-74
2023/05/01 10:50:09;;;;;;;26.35;22.77;;;19.00;56.10;;;;;;5000783;28;20089;-76
2023/05/01 10:53:10;;;;;;;29.88;22.15;;;19.10;54.60;;;;;;5012575;28;20421;-77
2023/05/01 10:55:37;;;;;;;26.25;21.92;;;18.90;55.80;;;;;;5008031;28;20032;-76
2023/05/01 10:58:03;;;;;;;28.92;24.35;;;19.00;55.20;;;;;;5008394;28;20067;-75
2023/05/01 11:00:30;;;;;;;28.02;22.10;;;19.00;55.40;;;;;;5003170;28;20033;-75
2023/05/01 11:03:20;;;;;;;29.08;23.77;;;18.80;56.30;;;;;;5007816;28;20045;-75
2023/05/01 11:06:04;;;;;;;29.05;23.00;;;18.60;57.60;;;;;;5011429;28;20044;-75
2023/05/01 11:08:30;;;;;;;27.13;22.95;;;18.80;57.70;;;;;;5009044;28;20053;-75
2023/05/01 11:10:56;;;;;;;28.95;23.70;;;19.20;57.40;;;;;;5013970;28;20029;-76
2023/05/01 11:13:55;;;;;;;28.05;23.48;;;19.10;56.10;;;;;;5016047;28;20030;-76
2023/05/01 11:16:36;;;;;;;25.42;21.88;;;19.20;56.50;;;;;;5001603;28;20038;-77
2023/05/01 11:19:02;;;;;;;24.60;20.58;;;19.10;55.30;;;;;;5008712;28;20026;-78
2023/05/01 11:21:32;;;;;;;25.92;21.90;;;19.40;54.20;;;;;;5007570;28;20034;-75
2023/05/01 11:24:17;;;;;;;25.60;21.35;;;19.70;54.10;;;;;;5014739;28;20061;-74
2023/05/01 11:26:43;;;;;;;28.20;21.77;;;19.60;53.30;;;;;;5014157;28;20502;-76
2023/05/01 11:29:10;;;;;;;26.90;23.05;;;19.50;54.60;;;;;;5007406;28;20018;-74
2023/05/01 11:31:36;;;;;;;27.73;24.10;;;19.10;55.20;;;;;;5012451;28;20029;-77
2023/05/01 11:34:02;;;;;;;26.40;22.10;;;19.00;54.90;;;;;;4999995;28;20057;-76
2023/05/01 11:36:45;;;;;;;27.58;22.15;;;19.00;55.90;;;;;;4999596;28;20038;-75
2023/05/01 11:39:14;;;;;;;25.95;22.48;;;19.10;54.90;;;;;;4997924;28;20033;-76
2023/05/01 11:41:40;;;;;;;28.27;23.02;;;19.40;55.30;;;;;;5001251;28;20691;-75
2023/05/01 11:44:05;;;;;;;19.10;16.17;;;19.10;53.80;;;;;;4999516;28;20035;-74
2023/05/01 11:46:32;;;;;;;24.48;18.60;;;19.20;52.00;;;;;;5000061;28;20054;-75
2023/05/01 11:49:02;;;;;;;24.48;20.10;;;19.30;52.10;;;;;;5002550;28;20037;-75
2023/05/01 11:51:29;;;;;;;20.13;16.90;;;19.30;52.30;;;;;;4997919;28;20042;-74
2023/05/01 11:54:08;;;;;;;24.90;20.63;;;19.80;52.00;;;;;;5001691;28;20378;-75
2023/05/01 11:56:36;;;;;;;25.08;22.20;;;20.10;51.80;;;;;;5006518;28;20490;-75
2023/05/01 11:59:29;;;;;;;25.92;21.88;;;19.90;53.20;;;;;;5007302;28;20092;-75
2023/05/01 12:01:55;;;;;;;27.20;23.13;;;19.60;52.80;;;;;;5000430;28;20022;-73
2023/05/01 12:04:28;;;;;;;25.67;21.48;;;19.10;54.20;;;;;;5001339;28;20077;-76
2023/05/01 12:06:54;;;;;;;26.60;22.58;;;18.80;55.70;;;;;;5009712;28;20061;-76
2023/05/01 12:09:21;;;;;;;25.80;22.30;;;18.60;56.90;;;;;;5003140;28;20449;-73
2023/05/01 12:11:52;;;;;;;25.80;22.40;;;18.40;57.50;;;;;;5013537;28;20478;-75
2023/05/01 12:14:20;;;;;;;26.25;22.35;;;18.30;57.50;;;;;;5012437;28;20071;-75
2023/05/01 12:16:46;;;;;;;28.08;23.55;;;18.40;57.30;;;;;;5019727;28;20377;-76
2023/05/01 12:19:13;;;;;;;26.58;20.83;;;18.40;56.30;;;;;;5014700;28;20034;-77
2023/05/01 12:21:40;;;;;;;22.80;19.83;;;18.40;56.80;;;;;;5012196;28;20044;-74
2023/05/01 12:24:14;;;;;;;24.02;20.55;;;18.50;56.50;;;;;;5009474;28;20113;-76
2023/05/01 12:26:41;;;;;;;23.88;20.20;;;18.50;56.60;;;;;;5018695;28;20042;-76
2023/05/01 12:29:10;;;;;;;23.33;20.70;;;18.60;56.70;;;;;;5015494;28;20029;-75
2023/05/01 12:31:44;;;;;;;25.85;21.55;;;18.70;56.30;;;;;;5010485;28;20034;-74
2023/05/01 12:34:10;;;;;;;26.58;19.10;;;18.70;55.60;;;;;;5012006;28;20369;-76